Time;durP1;ratioP1;P1;durP2;ratioP2;P2;SDS_P1;SDS_P2;PMS_P1;PMS_P2;Temp;Humidity;BMP_temperature;BMP_pressure;BME280_temperature;BME280_humidity;BME280_pressure;Samples;Min_cycle;Max_cycle;Signal;HPM_P1;HPM_P2
2021/01/30 00:01:52;;;;;;;21.15;6.63;;;7.70;99.90;;;7.75;74.80;100136.75;4824543;29;20111;-84
2021/01/30 00:04:20;;;;;;;16.77;8.10;;;7.70;99.90;;;7.85;74.71;100148.09;4824962;29;20119;-84
2021/01/30 00:06:49;;;;;;;21.98;7.68;;;7.80;99.90;;;7.82;74.93;100141.06;4824566;29;20093;-83
2021/01/30 00:09:17;;;;;;;15.57;8.18;;;7.80;99.90;;;7.89;74.78;100150.72;4824503;29;20084;-84
2021/01/30 00:11:48;;;;;;;19.45;7.68;;;7.90;99.90;;;7.89;74.49;100158.59;4823997;29;20565;-83
2021/01/30 00:14:21;;;;;;;16.07;8.67;;;7.80;99.90;;;7.73;73.50;100141.13;4824616;29;20058;-84
2021/01/30 00:16:48;;;;;;;15.87;7.97;;;7.90;99.90;;;7.72;74.00;100152.56;4824370;29;20054;-83
2021/01/30 00:19:16;;;;;;;18.92;8.65;;;7.70;99.90;;;7.62;74.04;100153.47;4824465;29;20078;-83
2021/01/30 00:21:50;;;;;;;22.03;7.53;;;7.60;99.90;;;7.54;73.94;100160.53;4824222;29;20569;-83
2021/01/30 00:24:18;;;;;;;11.00;6.73;;;7.60;99.90;;;7.19;73.38;100159.75;4824199;29;20505;-84
2021/01/30 00:26:50;;;;;;;11.40;6.40;;;7.30;99.90;;;6.98;73.40;100147.53;4824218;29;20177;-84
2021/01/30 00:29:19;;;;;;;17.13;7.20;;;7.00;99.90;;;6.92;73.85;100152.78;4824161;29;20588;-82
2021/01/30 00:31:47;;;;;;;10.37;8.13;;;7.00;99.90;;;6.76;74.60;100131.75;4824231;29;20062;-84
2021/01/30 00:34:15;;;;;;;17.73;7.77;;;6.90;99.90;;;6.63;75.07;100123.03;4824102;29;20054;-83
2021/01/30 00:36:42;;;;;;;12.47;7.87;;;6.80;99.90;;;6.91;75.15;100152.81;4823996;29;20050;-83
2021/01/30 00:39:10;;;;;;;12.87;7.40;;;6.90;99.90;;;6.87;74.83;100145.78;4823998;29;20088;-83
2021/01/30 00:41:37;;;;;;;13.77;8.27;;;6.80;99.90;;;6.23;74.56;100032.88;4824222;29;20483;-83
2021/01/30 00:44:05;;;;;;;14.93;8.73;;;6.90;99.90;;;6.75;74.53;100148.44;4823953;29;20517;-82
2021/01/30 00:46:33;;;;;;;15.37;8.47;;;6.80;99.90;;;6.71;74.09;100154.56;4824029;29;20065;-83
2021/01/30 00:49:02;;;;;;;16.70;7.90;;;6.80;99.90;;;6.76;74.18;100161.56;4822595;29;20094;-83
2021/01/30 00:51:29;;;;;;;12.73;8.47;;;6.70;99.90;;;6.64;73.66;100168.59;4822570;29;20069;-84
2021/01/30 00:53:59;;;;;;;13.85;7.82;;;6.60;99.90;;;6.53;73.43;100159.81;4823139;29;20066;-83
2021/01/30 00:56:27;;;;;;;13.13;8.10;;;6.60;99.90;;;6.66;73.54;100162.44;4823999;29;20054;-83
2021/01/30 00:58:55;;;;;;;9.50;8.20;;;6.70;99.90;;;6.69;73.46;100158.94;4822637;29;20061;-84
2021/01/30 01:01:22;;;;;;;12.70;8.03;;;6.70;99.90;;;6.66;73.12;100159.81;4825454;29;20062;-83
2021/01/30 01:03:52;;;;;;;11.30;8.40;;;6.60;99.90;;;6.69;72.72;100151.06;4826070;29;20054;-83
2021/01/30 01:06:20;;;;;;;12.67;7.83;;;6.70;99.90;;;6.60;72.35;100156.31;4826303;29;20146;-83
2021/01/30 01:08:47;;;;;;;11.93;8.63;;;6.60;99.90;;;6.66;72.55;100157.19;4827420;29;20068;-82
2021/01/30 01:11:14;;;;;;;12.53;8.37;;;6.70;99.90;;;6.03;73.07;100036.38;4827273;29;20114;-83
2021/01/30 01:13:42;;;;;;;12.17;8.33;;;6.70;99.90;;;6.78;73.20;100157.19;4827194;29;20501;-83
2021/01/30 01:16:09;;;;;;;11.83;8.27;;;6.70;99.90;;;6.74;71.88;100165.06;4827256;29;20061;-83
2021/01/30 01:18:37;;;;;;;12.93;8.40;;;6.70;99.90;;;6.64;71.51;100163.31;4827032;29;20061;-84
2021/01/30 01:21:05;;;;;;;10.40;8.87;;;6.60;99.90;;;6.57;71.89;100161.56;4827280;29;20058;-82
2021/01/30 01:23:32;;;;;;;11.80;7.20;;;6.60;99.90;;;6.46;70.96;100168.56;4827166;29;20105;-83
2021/01/30 01:26:00;;;;;;;9.53;7.80;;;6.50;99.90;;;6.42;70.87;100172.06;4827083;29;20054;-83
2021/01/30 01:28:27;;;;;;;12.30;7.50;;;6.40;99.90;;;6.30;69.96;100179.06;4826822;29;20054;-83
2021/01/30 01:30:55;;;;;;;10.37;7.23;;;6.30;99.90;;;6.32;69.89;100172.06;4826795;29;20054;-82
2021/01/30 01:33:22;;;;;;;13.07;7.97;;;6.30;99.90;;;5.89;69.90;100098.47;4827030;29;20054;-83
2021/01/30 01:35:50;;;;;;;11.57;7.20;;;6.40;99.90;;;6.23;69.33;100187.78;4825537;29;20062;-83
2021/01/30 01:38:18;;;;;;;10.73;7.23;;;6.30;99.90;;;6.37;69.81;100190.44;4826737;29;20512;-82
2021/01/30 01:40:46;;;;;;;13.47;6.60;;;6.30;99.90;;;6.27;69.05;100186.91;4826796;29;20062;-83
2021/01/30 01:43:16;;;;;;;10.80;7.60;;;6.30;99.90;;;5.93;69.38;100185.09;4826614;29;20087;-82
2021/01/30 01:45:48;;;;;;;9.77;7.25;;;6.10;99.90;;;6.08;69.78;100198.25;4826625;29;20054;-83
2021/01/30 01:48:26;;;;;;;11.60;8.20;;;6.10;99.90;;;6.11;69.93;100198.28;4826577;29;20508;-83
2021/01/30 01:50:54;;;;;;;10.07;6.93;;;6.10;99.90;;;6.05;68.99;100193.00;4826671;29;20054;-83
2021/01/30 01:53:27;;;;;;;10.90;6.77;;;6.10;99.90;;;5.74;69.97;100196.38;4826475;29;20054;-83
2021/01/30 01:56:00;;;;;;;12.07;7.43;;;5.80;99.90;;;5.94;69.97;100206.97;4826498;29;20077;-82
2021/01/30 01:58:30;;;;;;;9.87;7.13;;;5.90;99.90;;;6.03;69.68;100204.38;4826494;29;20089;-80
2021/01/30 02:00:58;;;;;;;12.27;7.43;;;6.00;99.90;;;5.55;69.74;100120.22;4826419;29;20404;-82
2021/01/30 02:03:28;;;;;;;12.50;8.37;;;6.00;99.90;;;6.07;69.34;100200.88;4826286;29;20074;-82
2021/01/30 02:06:00;;;;;;;11.67;7.03;;;6.10;99.90;;;6.05;69.40;100205.25;4826604;29;20509;-82
2021/01/30 02:08:29;;;;;;;13.17;7.67;;;6.10;99.90;;;5.87;69.22;100179.81;4826143;29;20116;-82
2021/01/30 02:10:57;;;;;;;10.53;6.97;;;6.00;99.90;;;6.08;69.05;100206.13;4826043;29;20479;-82
2021/01/30 02:13:29;;;;;;;10.23;7.77;;;6.10;99.90;;;6.06;68.28;100199.09;4826218;29;20058;-82
2021/01/30 02:16:06;;;;;;;7.73;6.60;;;6.00;99.90;;;5.90;68.22;100203.47;4826249;29;20573;-82
2021/01/30 02:18:48;;;;;;;11.60;7.43;;;6.00;99.90;;;5.69;67.29;100190.19;4826104;29;20051;-82
2021/01/30 02:22:20;;;;;;;9.40;7.20;;;5.80;99.90;;;5.46;67.26;100174.38;4826088;29;20054;-83
2021/01/30 02:25:55;;;;;;;8.50;7.67;;;5.60;99.90;;;5.48;67.79;100197.97;4826000;29;20050;-82
2021/01/30 02:28:32;;;;;;;10.37;7.30;;;5.50;99.90;;;5.29;67.72;100197.00;4772756;30;20485;-82
2021/01/30 02:31:18;;;;;;;8.40;7.10;;;5.40;99.90;;;5.03;69.00;100189.84;4787806;30;20456;-81
2021/01/30 02:34:19;;;;;;;10.23;8.07;;;5.20;99.90;;;5.36;69.40;100205.81;4812777;29;20509;-82
2021/01/30 02:36:55;;;;;;;11.75;8.32;;;5.30;99.90;;;5.46;68.84;100211.09;4825866;29;20501;-82
2021/01/30 02:39:28;;;;;;;10.00;8.30;;;5.40;99.90;;;5.42;68.60;100193.56;4825904;29;20062;-82
2021/01/30 02:42:05;;;;;;;10.43;8.77;;;5.50;99.90;;;5.16;68.41;100196.94;4825701;29;20073;-82
2021/01/30 02:44:39;;;;;;;10.17;8.87;;;5.30;99.90;;;5.27;68.80;100218.84;4825706;29;20055;-82
2021/01/30 02:47:11;;;;;;;10.60;8.30;;;5.30;99.90;;;5.13;68.90;100221.34;4825725;29;20108;-82
2021/01/30 02:49:47;;;;;;;9.30;8.33;;;5.20;99.90;;;4.69;69.53;100120.63;4825604;29;20050;-82
2021/01/30 02:52:19;;;;;;;9.90;8.10;;;5.20;99.90;;;5.21;69.08;100195.19;4824337;29;20058;-80
2021/01/30 02:54:47;;;;;;;10.60;9.57;;;5.30;99.90;;;5.28;69.10;100207.50;4824585;29;20066;-80
2021/01/30 02:57:17;;;;;;;10.30;9.30;;;5.30;99.90;;;5.02;69.09;100159.25;4825530;29;20508;-83
2021/01/30 02:59:48;;;;;;;10.00;9.00;;;5.20;99.90;;;5.03;68.73;100198.56;4825624;29;20065;-82
2021/01/30 03:02:17;;;;;;;9.57;8.70;;;5.10;99.90;;;4.75;68.84;100187.88;4824299;29;20473;-82
2021/01/30 03:04:46;;;;;;;10.23;9.32;;;4.90;99.90;;;4.56;68.83;100184.25;4824205;29;20489;-83
2021/01/30 03:08:01;;;;;;;10.20;9.20;;;4.70;99.90;;;4.31;69.42;100203.22;4825366;29;20062;-82
2021/01/30 03:10:33;;;;;;;9.93;8.93;;;4.60;99.90;;;4.34;69.90;100193.66;4825447;29;20058;-81
2021/01/30 03:13:10;;;;;;;10.43;9.43;;;4.40;99.90;;;4.28;69.94;100184.84;4823990;29;20058;-82
2021/01/30 03:15:51;;;;;;;10.63;9.77;;;4.40;99.90;;;4.21;70.54;100156.88;4824265;29;20058;-83
2021/01/30 03:18:21;;;;;;;;;;;4.40;99.90;;;4.40;70.03;100195.44;4825877;29;20398;-81
2021/01/30 03:20:48;;;;;;;10.18;9.18;;;4.40;99.90;;;4.45;70.38;100192.00;4825277;29;19994;-81
2021/01/30 03:23:20;;;;;;;10.57;9.67;;;4.50;99.90;;;4.38;69.51;100190.19;4824448;29;20111;-82
2021/01/30 03:25:48;;;;;;;10.97;10.07;;;4.50;99.90;;;4.43;70.14;100190.25;4825044;29;20058;-82
2021/01/30 03:28:17;;;;;;;11.90;10.90;;;4.50;99.90;;;4.11;70.04;100189.94;4825243;29;20090;-82
2021/01/30 03:30:45;;;;;;;11.83;10.83;;;4.20;99.90;;;4.20;70.12;100205.72;4825063;29;20054;-80
2021/01/30 03:33:13;;;;;;;11.30;9.97;;;4.20;99.90;;;4.10;70.10;100206.50;4825047;29;20458;-82
2021/01/30 03:35:41;;;;;;;11.23;10.23;;;4.20;99.90;;;4.10;70.27;100177.72;4824981;29;20145;-83
2021/01/30 03:38:08;;;;;;;11.77;10.67;;;4.20;99.90;;;4.17;70.02;100190.00;4824826;29;20480;-81
2021/01/30 03:40:38;;;;;;;11.93;10.80;;;4.20;99.90;;;4.25;69.55;100182.22;4823736;29;20100;-82
2021/01/30 03:43:07;;;;;;;11.27;10.07;;;4.30;99.90;;;4.18;69.65;100186.50;4825068;29;20162;-82
2021/01/30 03:45:35;;;;;;;12.63;11.40;;;4.30;99.90;;;3.81;69.57;100187.00;4824804;29;20107;-82
2021/01/30 03:48:04;;;;;;;12.27;11.10;;;4.00;99.90;;;3.61;69.92;100154.50;4824739;29;20062;-82
2021/01/30 03:50:32;;;;;;;11.90;10.87;;;3.80;99.90;;;3.75;69.86;100155.53;4824663;29;20521;-82
2021/01/30 03:53:04;;;;;;;11.93;10.67;;;3.80;99.90;;;3.60;69.56;100137.06;4823378;29;20086;-82
2021/01/30 03:55:31;;;;;;;12.47;11.37;;;3.80;99.90;;;3.85;70.22;100174.81;4825166;29;20072;-81
2021/01/30 03:58:00;;;;;;;12.30;11.10;;;3.90;99.90;;;3.43;69.61;100151.66;4824740;29;20458;-82
2021/01/30 04:00:27;;;;;;;12.50;11.30;;;3.80;99.90;;;3.60;70.78;100179.75;4824703;29;20085;-81
2021/01/30 04:02:55;;;;;;;12.80;11.60;;;3.70;99.90;;;3.74;70.44;100187.75;4824520;29;20556;-81
2021/01/30 04:05:26;;;;;;;13.10;11.93;;;3.80;99.90;;;3.77;70.22;100184.31;4823170;29;20065;-82
2021/01/30 04:07:56;;;;;;;13.50;12.20;;;3.80;99.90;;;3.40;70.31;100177.75;4823458;29;20428;-81
2021/01/30 04:10:28;;;;;;;14.63;13.15;;;3.60;99.90;;;3.61;70.90;100175.41;4824566;29;20054;-82
2021/01/30 04:12:56;;;;;;;14.90;13.50;;;3.60;99.90;;;3.76;71.33;100177.31;4824301;29;20062;-81
2021/01/30 04:15:29;;;;;;;15.03;13.63;;;3.80;99.90;;;3.80;70.65;100172.16;4824321;29;20129;-81
2021/01/30 04:17:57;;;;;;;15.87;14.33;;;3.80;99.90;;;3.53;70.78;100143.94;4824340;29;20054;-82
2021/01/30 04:20:26;;;;;;;16.03;14.53;;;3.80;99.90;;;3.37;70.78;100134.16;4824317;29;20062;-81
2021/01/30 04:22:54;;;;;;;16.67;15.10;;;3.70;99.90;;;3.30;71.60;100149.75;4824216;29;20054;-82
2021/01/30 04:25:23;;;;;;;14.87;13.37;;;3.50;99.90;;;3.39;71.84;100157.69;4823086;29;20062;-82
2021/01/30 04:27:51;;;;;;;17.90;14.47;;;3.50;99.90;;;3.32;71.83;100158.47;4824221;29;20509;-82
2021/01/30 04:30:22;;;;;;;16.80;15.20;;;3.40;99.90;;;2.82;72.65;100136.03;4824045;29;20065;-80
2021/01/30 04:32:51;;;;;;;17.73;16.03;;;3.20;99.90;;;2.60;73.81;100133.09;4823116;29;20051;-82
2021/01/30 04:35:23;;;;;;;17.93;16.13;;;2.90;99.90;;;2.82;74.81;100159.53;4822979;29;20081;-82
2021/01/30 04:37:50;;;;;;;17.27;15.57;;;2.80;99.90;;;2.72;74.52;100146.34;4824238;29;20054;-81
2021/01/30 04:40:28;;;;;;;18.43;16.50;;;2.90;99.90;;;2.84;74.82;100156.09;4823917;29;20082;-82
2021/01/30 04:43:09;;;;;;;18.50;16.47;;;2.90;99.90;;;2.97;74.81;100162.34;4823981;29;20054;-82
2021/01/30 04:46:02;;;;;;;17.75;16.05;;;3.00;99.90;;;2.26;74.82;100054.28;4824044;29;20099;-82
2021/01/30 04:48:53;;;;;;;17.57;15.37;;;3.00;99.90;;;2.81;75.67;100160.38;4824063;29;20123;-80
2021/01/30 04:51:31;;;;;;;17.73;16.03;;;2.90;99.90;;;3.14;74.74;100153.88;4823889;29;20058;-81
2021/01/30 04:54:36;;;;;;;18.53;16.73;;;3.10;99.90;;;3.12;74.21;100139.03;4822876;29;20115;-82
2021/01/30 04:57:28;;;;;;;17.87;15.97;;;3.20;99.90;;;3.01;74.37;100140.66;4817204;29;20066;-82
2021/01/30 05:00:19;;;;;;;17.87;16.13;;;3.20;99.90;;;3.08;74.54;100140.75;4824037;29;20139;-81
2021/01/30 05:02:56;;;;;;;;;;;3.20;99.90;;;3.11;74.47;100127.75;4824275;29;20478;-81
2021/01/30 05:05:27;;;;;;;17.93;16.23;;;3.20;99.90;;;3.02;74.23;100139.81;4823778;29;19924;-82
2021/01/30 05:07:58;;;;;;;17.30;15.50;;;3.10;99.90;;;2.90;74.44;100119.63;4823683;29;20084;-82
2021/01/30 05:10:33;;;;;;;19.37;16.30;;;3.10;99.90;;;2.99;74.80;100135.41;4823682;29;20058;-82
2021/01/30 05:13:08;;;;;;;18.40;16.50;;;3.10;99.90;;;2.77;74.71;100091.56;4823570;29;20065;-82
2021/01/30 05:15:41;;;;;;;18.83;16.93;;;3.10;99.90;;;2.56;75.07;100086.91;4823693;29;20107;-81
2021/01/30 05:18:16;;;;;;;19.57;16.90;;;3.10;99.90;;;2.88;74.99;100138.72;4823763;29;20050;-83
2021/01/30 05:20:50;;;;;;;17.60;15.80;;;3.00;99.90;;;2.83;75.38;100137.78;4822568;29;20063;-81
2021/01/30 05:23:18;;;;;;;17.70;15.93;;;2.90;99.90;;;2.69;75.24;100138.44;4823818;29;20081;-80
2021/01/30 05:25:49;;;;;;;18.30;16.50;;;2.90;99.90;;;2.46;76.47;100094.56;4823482;29;20050;-81
2021/01/30 05:28:32;;;;;;;17.90;16.10;;;2.80;99.90;;;2.65;76.18;100134.03;4823554;29;20054;-81
2021/01/30 05:31:16;;;;;;;17.47;15.70;;;2.80;99.90;;;2.57;75.35;100127.84;4822399;29;20065;-80
2021/01/30 05:34:03;;;;;;;18.40;16.50;;;2.80;99.90;;;2.47;76.47;100133.75;4822411;29;20066;-80
2021/01/30 05:36:39;;;;;;;18.70;16.57;;;2.60;99.90;;;2.50;75.73;100112.91;4823853;29;20123;-80
2021/01/30 05:39:25;;;;;;;17.53;15.83;;;2.70;99.90;;;2.68;75.63;100117.53;4822178;29;20058;-80
2021/01/30 05:42:05;;;;;;;17.67;15.17;;;2.70;99.90;;;2.64;75.18;100121.84;4823744;29;20504;-82
2021/01/30 05:44:43;;;;;;;17.73;15.73;;;2.80;99.90;;;2.20;76.34;100132.41;4823547;29;20058;-80
2021/01/30 05:47:16;;;;;;;17.23;15.43;;;2.40;99.90;;;1.99;77.26;100127.72;4825690;29;20139;-81
2021/01/30 05:49:58;;;;;;;18.43;16.63;;;2.20;99.90;;;1.97;77.94;100121.59;4826493;29;20169;-82
2021/01/30 05:52:33;;;;;;;16.70;15.00;;;2.10;99.90;;;2.00;77.50;100124.25;4826785;29;20141;-81
2021/01/30 05:55:02;;;;;;;15.83;14.20;;;2.20;99.90;;;2.02;77.39;100151.22;4825460;29;20058;-82
2021/01/30 05:57:29;;;;;;;16.53;14.87;;;2.10;99.90;;;1.90;77.16;100080.63;4825198;29;20111;-81
2021/01/30 05:59:59;;;;;;;15.37;13.77;;;2.20;99.90;;;2.16;76.31;100100.19;4826386;29;20111;-80
2021/01/30 06:02:31;;;;;;;15.63;14.13;;;2.40;99.90;;;1.97;76.62;100086.81;4826657;29;20409;-82
2021/01/30 06:04:59;;;;;;;15.63;14.10;;;2.30;99.90;;;2.30;77.25;100105.66;4826531;29;20055;-81
2021/01/30 06:07:34;;;;;;;15.50;14.00;;;2.40;99.90;;;2.22;76.54;100097.69;4825169;29;20111;-81
2021/01/30 06:10:26;;;;;;;14.80;12.90;;;2.40;99.90;;;2.25;76.39;100112.50;4824934;29;20066;-82
2021/01/30 06:13:14;;;;;;;13.97;12.67;;;2.30;99.90;;;1.96;75.98;100109.41;4824892;29;20069;-81
2021/01/30 06:15:44;;;;;;;14.23;12.73;;;2.20;99.90;;;2.00;75.93;100119.03;4826332;29;20139;-79
2021/01/30 06:18:38;;;;;;;14.20;12.38;;;2.30;99.90;;;2.20;76.24;100091.59;4826195;29;20542;-78
2021/01/30 06:21:11;;;;;;;12.90;11.60;;;2.30;99.90;;;1.96;75.94;100116.34;4825056;29;20470;-82
2021/01/30 06:23:40;;;;;;;13.07;11.77;;;2.20;99.90;;;1.80;76.64;100121.28;4826280;29;20058;-80
2021/01/30 06:26:20;;;;;;;14.27;12.73;;;2.00;99.90;;;1.79;77.98;100124.75;4825988;29;20062;-81
2021/01/30 06:28:57;;;;;;;13.85;12.27;;;1.90;99.90;;;1.90;76.80;100105.84;4826168;29;20064;-80
2021/01/30 06:31:30;;;;;;;14.67;13.13;;;2.00;99.90;;;1.82;77.64;100110.88;4825775;29;20082;-82
2021/01/30 06:34:04;;;;;;;14.97;13.40;;;2.00;99.90;;;1.68;77.65;100084.56;4824794;29;20066;-81
2021/01/30 06:36:33;;;;;;;15.30;13.80;;;2.00;99.90;;;2.25;77.55;100113.38;4825896;29;20058;-81
2021/01/30 06:39:10;;;;;;;14.50;13.10;;;2.20;99.90;;;1.99;77.56;100106.88;4825753;29;20134;-82
2021/01/30 06:41:40;;;;;;;14.00;12.70;;;2.10;99.90;;;2.17;76.68;100096.72;4825680;29;20107;-82
2021/01/30 06:44:16;;;;;;;14.15;12.85;;;2.30;99.90;;;2.48;76.17;100117.22;4824682;29;20070;-82
2021/01/30 06:47:14;;;;;;;14.70;13.03;;;2.50;99.90;;;2.18;77.26;100121.97;4825705;29;20062;-79
2021/01/30 06:49:46;;;;;;;15.23;13.63;;;2.30;99.90;;;2.29;76.59;100094.31;4825659;29;20088;-82
2021/01/30 06:52:23;;;;;;;13.67;12.27;;;2.50;99.90;;;2.26;77.05;100112.53;4825679;29;20099;-81
2021/01/30 06:55:12;;;;;;;14.47;12.97;;;2.30;99.90;;;1.71;77.28;100108.09;4825781;29;20054;-83
2021/01/30 06:57:50;;;;;;;15.50;13.80;;;2.00;99.90;;;2.00;78.20;100108.59;4823414;29;20058;-82
2021/01/30 07:00:27;;;;;;;14.27;12.87;;;2.10;99.90;;;1.69;78.20;100114.13;4825513;29;20463;-80
2021/01/30 07:03:12;;;;;;;15.10;13.50;;;1.90;99.90;;;1.53;78.39;100067.81;4825677;29;20059;-80
2021/01/30 07:06:07;;;;;;;16.17;14.20;;;2.00;99.90;;;1.88;78.65;100087.53;4824295;29;20062;-80
2021/01/30 07:09:00;;;;;;;16.57;14.70;;;1.90;99.90;;;1.95;78.21;100102.44;4824845;29;20069;-79
2021/01/30 07:11:45;;;;;;;16.47;13.30;;;2.10;99.90;;;1.85;78.27;100108.34;4824993;29;20061;-81
2021/01/30 07:14:36;;;;;;;16.70;14.03;;;2.00;99.90;;;1.98;78.70;100072.91;4823933;29;20083;-82
2021/01/30 07:17:08;;;;;;;;;;;2.10;99.90;;;2.08;78.20;100095.69;4825678;29;20130;-82
2021/01/30 07:19:54;;;;;;;15.10;13.50;;;2.20;99.90;;;1.81;78.14;100081.34;4825417;29;20298;-83
2021/01/30 07:22:27;;;;;;;15.40;13.60;;;2.10;99.90;;;2.05;78.34;100090.44;4825385;29;20066;-81
2021/01/30 07:25:03;;;;;;;14.30;12.90;;;2.10;99.90;;;2.11;77.58;100082.72;4825004;29;20080;-81
2021/01/30 07:27:40;;;;;;;14.63;12.93;;;2.20;99.90;;;1.98;77.38;100076.41;4823785;29;20055;-82
2021/01/30 07:30:14;;;;;;;15.17;13.57;;;2.20;99.90;;;1.87;77.64;100085.78;4823966;29;20066;-81
2021/01/30 07:32:53;;;;;;;14.83;13.23;;;2.10;99.90;;;1.69;78.22;100077.63;4825010;29;20050;-80
2021/01/30 07:35:26;;;;;;;14.67;13.13;;;1.90;99.90;;;1.41;78.96;100045.00;4824673;29;20047;-81
2021/01/30 07:38:01;;;;;;;14.37;12.63;;;1.70;99.90;;;1.65;78.35;100081.03;4824825;29;20058;-80
2021/01/30 07:40:41;;;;;;;14.87;13.27;;;1.80;99.90;;;1.40;79.15;100089.25;4825149;29;20062;-81
2021/01/30 07:43:17;;;;;;;14.93;13.40;;;1.60;99.90;;;1.59;79.69;100088.72;4824929;29;20106;-81
2021/01/30 07:46:06;;;;;;;15.17;13.57;;;1.60;99.90;;;1.34;80.05;100048.34;4823765;29;20069;-81
2021/01/30 07:48:42;;;;;;;14.77;13.10;;;1.50;99.90;;;1.15;80.19;100110.44;4824746;29;20133;-82
2021/01/30 07:51:14;;;;;;;15.23;13.63;;;1.40;99.90;;;1.32;80.40;100106.44;4823654;29;20149;-81
2021/01/30 07:53:42;;;;;;;16.00;14.33;;;1.40;99.90;;;1.30;80.08;100050.84;4824693;29;20062;-82
2021/01/30 07:56:29;;;;;;;14.83;13.33;;;1.60;99.90;;;1.31;80.00;100082.13;4824663;29;20057;-82
2021/01/30 07:59:20;;;;;;;18.40;14.10;;;1.50;99.90;;;1.50;80.29;100079.03;4824564;29;20055;-81
2021/01/30 08:02:08;;;;;;;15.40;13.80;;;1.60;99.90;;;1.62;79.81;100073.16;4823430;29;20058;-79
2021/01/30 08:05:20;;;;;;;18.77;14.20;;;1.70;99.90;;;1.46;80.28;100087.63;4824577;29;20509;-78
2021/01/30 08:07:56;;;;;;;16.80;14.03;;;1.60;99.90;;;1.55;80.08;100069.56;4824457;29;20050;-78
2021/01/30 08:10:35;;;;;;;16.10;14.40;;;1.70;99.90;;;1.47;80.11;100078.97;4824256;29;20059;-77
2021/01/30 08:13:18;;;;;;;16.40;14.68;;;1.60;99.90;;;1.47;80.47;100085.94;4825142;29;20072;-79
2021/01/30 08:15:52;;;;;;;15.90;14.20;;;1.70;99.90;;;1.44;80.13;100073.72;4824360;29;20123;-80
2021/01/30 08:18:33;;;;;;;16.00;14.30;;;1.60;99.90;;;1.46;80.98;100061.59;4824432;29;20063;-81
2021/01/30 08:21:13;;;;;;;15.47;13.17;;;1.50;99.90;;;1.39;80.78;100077.06;4824433;29;20128;-81
2021/01/30 08:24:02;;;;;;;15.27;13.68;;;1.60;99.90;;;1.52;80.93;100061.72;4823130;29;20555;-76
2021/01/30 08:26:34;;;;;;;15.53;13.53;;;1.60;99.90;;;1.41;80.53;100051.94;4824236;29;20394;-78
2021/01/30 08:29:14;;;;;;;16.77;14.90;;;1.60;99.90;;;1.46;80.87;100082.44;4824443;29;20085;-81
2021/01/30 08:31:47;;;;;;;17.27;14.18;;;1.60;99.90;;;1.43;80.52;100084.09;4824018;29;20114;-80
2021/01/30 08:34:37;;;;;;;14.53;13.03;;;1.60;99.90;;;1.43;80.52;100039.81;4822703;29;20408;-84
2021/01/30 08:37:41;;;;;;;15.60;14.00;;;1.70;99.90;;;1.50;80.61;100050.38;4822797;29;20509;-78
2021/01/30 08:40:16;;;;;;;14.77;13.10;;;1.60;99.90;;;1.64;79.76;100050.63;4824068;29;20103;-80
2021/01/30 08:42:57;;;;;;;15.27;13.67;;;1.80;99.90;;;1.74;79.65;100058.63;4823962;29;20062;-80
2021/01/30 08:45:29;;;;;;;14.87;13.37;;;1.80;99.90;;;1.27;79.78;100061.22;4822989;29;20058;-77
2021/01/30 08:48:28;;;;;;;13.40;12.10;;;1.50;99.90;;;1.35;78.50;100075.25;4824120;29;20066;-78
2021/01/30 08:50:58;;;;;;;14.70;13.20;;;1.60;99.90;;;1.43;79.40;100079.75;4823732;29;20420;-81
2021/01/30 08:53:34;;;;;;;15.43;13.50;;;1.60;99.90;;;1.24;79.38;100058.56;4824061;29;20513;-81
2021/01/30 08:56:04;;;;;;;14.67;13.07;;;1.50;99.90;;;1.12;79.63;100019.25;4823870;29;20505;-80
2021/01/30 08:58:51;;;;;;;15.05;13.55;;;1.40;99.90;;;1.55;78.95;100081.72;4823816;29;20107;-87
2021/01/30 09:01:47;;;;;;;16.37;11.80;;;1.60;99.90;;;1.29;78.86;100023.94;4823627;29;20074;-85
2021/01/30 09:05:04;;;;;;;14.80;13.23;;;1.70;99.90;;;1.61;79.19;100066.19;4822662;29;20065;-85
2021/01/30 09:07:42;;;;;;;15.17;13.57;;;1.70;99.90;;;1.65;78.59;100061.06;4823912;29;20050;-78
2021/01/30 09:10:36;;;;;;;15.93;14.13;;;1.80;99.90;;;1.77;78.40;100042.16;4823831;29;20070;-85
2021/01/30 09:13:10;;;;;;;14.70;13.13;;;1.90;99.90;;;1.63;77.95;100069.69;4823883;29;20082;-83
2021/01/30 09:16:02;;;;;;;16.83;13.50;;;1.80;99.90;;;1.47;79.13;100085.94;4822378;29;20505;-82
2021/01/30 09:18:52;;;;;;;15.17;13.57;;;1.60;99.90;;;1.60;79.31;100044.50;4822491;29;20058;-79
2021/01/30 09:21:44;;;;;;;16.23;14.05;;;1.60;99.90;;;1.45;78.95;100074.59;4823731;29;20069;-77
2021/01/30 09:24:57;;;;;;;15.70;14.00;;;1.70;99.90;;;1.40;79.61;100040.63;4825532;29;20062;-80
2021/01/30 09:27:29;;;;;;;17.70;14.80;;;1.60;99.90;;;1.28;79.79;100040.41;4825808;29;20058;-80
2021/01/30 09:30:03;;;;;;;16.80;14.83;;;1.50;99.90;;;1.49;79.92;100071.19;4826919;29;20054;-79
2021/01/30 09:32:46;;;;;;;17.40;15.43;;;1.60;99.90;;;1.63;80.21;100065.38;4826459;29;20058;-78
2021/01/30 09:35:23;;;;;;;18.00;16.10;;;1.70;99.90;;;1.78;79.77;100077.81;4826632;29;20535;-79
2021/01/30 09:37:52;;;;;;;17.20;15.30;;;1.90;99.90;;;1.82;79.71;100069.16;4826710;29;20401;-78
2021/01/30 09:40:25;;;;;;;17.00;15.20;;;1.90;99.90;;;1.88;79.71;100060.59;4826677;29;20054;-77
2021/01/30 09:43:01;;;;;;;20.53;15.53;;;2.00;99.90;;;1.98;79.20;100080.75;4826739;29;20104;-79
2021/01/30 09:45:29;;;;;;;19.00;15.13;;;2.10;99.90;;;1.73;79.90;100059.47;4825328;29;20058;-83
2021/01/30 09:47:58;;;;;;;16.27;14.53;;;1.90;99.90;;;1.67;80.21;100066.31;4826604;29;20058;-75
2021/01/30 09:50:32;;;;;;;17.40;15.60;;;1.80;99.90;;;1.94;80.25;100060.69;4826588;29;20062;-81
2021/01/30 09:53:07;;;;;;;15.93;13.47;;;1.90;99.90;;;1.77;79.56;100049.97;4826597;29;20058;-80
2021/01/30 09:55:37;;;;;;;16.83;14.63;;;2.00;99.90;;;1.62;79.68;100045.41;4825431;29;20149;-79
2021/01/30 09:58:11;;;;;;;16.63;14.83;;;1.80;99.90;;;1.63;80.25;100069.69;4826649;29;20074;-84
2021/01/30 10:00:41;;;;;;;15.47;13.73;;;1.80;99.90;;;1.74;79.98;100062.97;4826121;29;20058;-82
2021/01/30 10:03:16;;;;;;;15.68;13.95;;;1.80;99.90;;;1.21;79.78;100003.81;4826046;29;20058;-74
2021/01/30 10:05:44;;;;;;;14.93;13.43;;;1.60;99.90;;;1.54;79.08;100059.13;4825000;29;20127;-75
2021/01/30 10:08:29;;;;;;;15.43;13.90;;;1.70;99.90;;;1.65;79.28;100050.66;4826427;29;20050;-74
2021/01/30 10:11:08;;;;;;;14.27;12.77;;;1.70;99.90;;;1.62;78.87;100075.78;4826186;29;20066;-80
2021/01/30 10:13:37;;;;;;;14.97;13.40;;;1.80;99.90;;;1.08;79.31;100002.72;4826050;29;20054;-81
2021/01/30 10:16:11;;;;;;;16.27;14.30;;;1.70;99.90;;;1.59;79.39;100039.22;4824866;29;20138;-72
2021/01/30 10:18:45;;;;;;;15.07;13.47;;;1.80;99.90;;;1.55;78.60;100063.47;4825910;29;20067;-75
2021/01/30 10:21:14;;;;;;;15.00;13.50;;;1.80;99.90;;;1.74;79.55;100084.69;4825980;29;20050;-79
2021/01/30 10:23:47;;;;;;;15.05;13.40;;;1.80;99.90;;;1.73;79.01;100063.81;4826085;29;20062;-77
2021/01/30 10:26:21;;;;;;;14.23;12.73;;;1.90;99.90;;;1.55;78.87;100066.06;4824831;29;20065;-77
2021/01/30 10:28:55;;;;;;;15.13;13.53;;;1.80;99.90;;;1.60;79.32;100073.16;4826126;29;20054;-80
2021/01/30 10:31:30;;;;;;;15.93;13.70;;;1.80;99.90;;;1.46;79.20;100066.81;4826033;29;20051;-80
2021/01/30 10:34:03;;;;;;;16.57;13.20;;;1.70;99.90;;;1.43;79.36;100034.63;4825637;29;20133;-83
2021/01/30 10:36:33;;;;;;;15.63;13.50;;;1.70;99.90;;;1.86;79.34;100051.88;4825844;29;20065;-81
2021/01/30 10:39:03;;;;;;;16.80;14.03;;;1.90;99.90;;;1.76;78.91;100079.53;4825686;29;20062;-79
2021/01/30 10:41:32;;;;;;;15.38;13.65;;;1.90;99.90;;;1.73;79.97;100069.91;4826089;29;20093;-79
2021/01/30 10:44:04;;;;;;;17.20;14.13;;;1.80;99.90;;;1.80;79.14;100050.06;4825815;29;20089;-82
2021/01/30 10:46:40;;;;;;;17.20;14.43;;;2.00;99.90;;;1.97;78.48;100051.22;4825880;29;20054;-81
2021/01/30 10:49:24;;;;;;;15.53;13.93;;;2.10;99.90;;;2.02;78.75;100052.16;4824321;29;20053;-79
2021/01/30 10:51:59;;;;;;;15.73;14.13;;;2.10;99.90;;;1.93;78.47;100054.63;4824205;29;20509;-81